createdAt,value
2022-12-11T00:01:36.419Z,122.68
2022-12-11T00:07:10.761Z,119.63
2022-12-11T00:09:38.024Z,112.00
2022-12-11T00:12:06.105Z,121.30
2022-12-11T00:14:33.476Z,109.28
2022-12-11T00:17:00.599Z,107.28
2022-12-11T00:19:27.698Z,117.03
2022-12-11T00:21:54.657Z,104.63
2022-12-11T00:24:21.668Z,114.53
2022-12-11T00:26:48.679Z,115.95
2022-12-11T00:29:15.921Z,108.60
2022-12-11T00:31:46.207Z,115.65
2022-12-11T00:34:14.505Z,110.18
2022-12-11T00:36:41.573Z,113.75
2022-12-11T00:39:08.702Z,115.18
2022-12-11T00:41:36.105Z,113.90
2022-12-11T00:44:07.076Z,112.93
2022-12-11T00:46:34.225Z,85.38
2022-12-11T00:49:01.346Z,115.75
2022-12-11T00:51:28.685Z,103.68
2022-12-11T00:53:56.263Z,103.20
2022-12-11T00:56:26.066Z,105.32
2022-12-11T00:58:54.686Z,99.45
2022-12-11T01:01:24.080Z,104.85
2022-12-11T01:04:07.681Z,99.57
2022-12-11T01:06:34.844Z,105.82
2022-12-11T01:09:20.815Z,93.88
2022-12-11T01:11:48.034Z,96.95
2022-12-11T01:14:15.569Z,92.82
2022-12-11T01:16:42.713Z,88.75
2022-12-11T01:19:12.103Z,91.43
2022-12-11T01:21:39.327Z,79.53
2022-12-11T01:24:06.677Z,80.25
2022-12-11T01:26:33.756Z,78.43
2022-12-11T01:29:01.524Z,80.15
2022-12-11T01:31:34.181Z,80.70
2022-12-11T01:34:01.281Z,75.38
2022-12-11T01:36:31.084Z,77.25
2022-12-11T01:38:58.871Z,71.07
2022-12-11T01:41:26.043Z,72.03
2022-12-11T01:44:02.164Z,75.43
2022-12-11T01:46:30.223Z,76.35
2022-12-11T01:48:59.152Z,76.18
2022-12-11T01:51:28.643Z,81.68
2022-12-11T01:54:02.143Z,84.32
2022-12-11T01:56:38.474Z,88.95
2022-12-11T01:59:08.054Z,85.97
2022-12-11T02:01:40.724Z,80.00
2022-12-11T02:04:09.135Z,77.05
2022-12-11T02:06:40.251Z,84.55
2022-12-11T02:09:13.653Z,62.38
2022-12-11T02:12:03.939Z,83.60
2022-12-11T02:14:36.785Z,92.10
2022-12-11T02:17:37.459Z,94.32
2022-12-11T02:20:15.757Z,87.65
2022-12-11T02:23:13.783Z,88.10
2022-12-11T02:25:53.819Z,77.65
2022-12-11T02:28:24.300Z,75.68
2022-12-11T02:30:57.154Z,79.93
2022-12-11T02:33:39.569Z,74.05
2022-12-11T02:36:09.799Z,69.70
2022-12-11T02:38:41.787Z,71.40
2022-12-11T02:41:13.667Z,68.95
2022-12-11T02:46:09.655Z,43.42
2022-12-11T02:48:38.275Z,46.92
2022-12-11T02:51:09.272Z,48.45
2022-12-11T02:53:40.278Z,45.23
2022-12-11T02:56:10.957Z,29.10
2022-12-11T02:58:43.660Z,39.92
2022-12-11T03:01:10.777Z,38.28
2022-12-11T03:03:37.928Z,37.33
2022-12-11T03:06:05.269Z,41.10
2022-12-11T03:08:32.930Z,39.10
2022-12-11T03:11:00.075Z,42.92
2022-12-11T03:13:27.608Z,45.60
2022-12-11T03:16:21.432Z,43.58
2022-12-11T03:19:01.953Z,44.72
2022-12-11T03:21:36.827Z,38.15
2022-12-11T03:24:22.145Z,36.05
2022-12-11T03:27:10.852Z,30.77
2022-12-11T03:29:43.760Z,28.33
2022-12-11T03:32:20.108Z,24.45
2022-12-11T03:35:02.636Z,18.80
2022-12-11T03:37:34.301Z,15.77
2022-12-11T03:40:06.942Z,12.73
2022-12-11T03:42:35.678Z,13.55
2022-12-11T03:45:04.881Z,11.32
2022-12-11T03:47:34.594Z,10.75
2022-12-11T03:50:04.516Z,9.85
2022-12-11T03:52:32.570Z,8.52
2022-12-11T03:55:02.366Z,9.45
2022-12-11T03:57:32.542Z,7.97
2022-12-11T03:59:59.732Z,5.38
2022-12-11T04:02:26.887Z,6.32
2022-12-11T04:04:55.388Z,5.80
2022-12-11T04:07:22.621Z,6.68
2022-12-11T04:09:49.649Z,5.65
2022-12-11T04:12:16.603Z,5.32
2022-12-11T04:15:01.976Z,9.10
2022-12-11T04:17:56.357Z,7.07
2022-12-11T04:20:41.827Z,7.28
2022-12-11T04:23:34.758Z,4.95
2022-12-11T04:26:10.548Z,5.45
2022-12-11T04:28:38.050Z,4.38
2022-12-11T04:31:05.376Z,5.10
2022-12-11T04:33:42.352Z,7.03
2022-12-11T04:36:14.910Z,4.18
2022-12-11T04:38:41.983Z,4.20
2022-12-11T04:41:11.665Z,3.63
2022-12-11T04:43:39.400Z,6.03
2022-12-11T04:46:18.452Z,3.72
2022-12-11T04:48:46.462Z,3.97
2022-12-11T04:51:14.413Z,2.20
2022-12-11T04:53:41.982Z,2.00
2022-12-11T04:56:11.740Z,1.67
2022-12-11T04:58:39.705Z,2.15
2022-12-11T05:01:18.646Z,1.17
2022-12-11T05:03:45.808Z,1.92
2022-12-11T05:06:13.516Z,2.95
2022-12-11T05:08:42.005Z,1.92
2022-12-11T05:11:11.753Z,1.35
2022-12-11T05:13:39.245Z,1.52
2022-12-11T05:16:08.507Z,2.47
2022-12-11T05:18:35.799Z,1.67
2022-12-11T05:21:06.678Z,1.50
2022-12-11T05:23:34.352Z,2.28
2022-12-11T05:26:07.435Z,2.10
2022-12-11T05:28:36.627Z,3.00
2022-12-11T05:31:07.441Z,2.35
2022-12-11T05:33:35.324Z,2.58
2022-12-11T05:36:02.768Z,1.70
2022-12-11T05:38:29.835Z,1.70
2022-12-11T05:41:04.397Z,2.20
2022-12-11T05:43:34.068Z,2.05
2022-12-11T05:46:15.780Z,1.80
2022-12-11T05:48:46.743Z,1.77
2022-12-11T05:55:00.233Z,3.55
2022-12-11T05:57:27.156Z,2.85
2022-12-11T05:59:54.476Z,2.88
2022-12-11T06:02:21.627Z,6.25
2022-12-11T06:04:48.859Z,1.80
2022-12-11T06:07:15.998Z,1.73
2022-12-11T06:09:45.095Z,2.10
2022-12-11T06:12:12.450Z,1.58
2022-12-11T06:14:41.157Z,1.85
2022-12-11T06:17:08.337Z,2.63
2022-12-11T06:22:10.275Z,3.63
2022-12-11T06:24:37.386Z,2.47
2022-12-11T06:27:04.592Z,2.67
2022-12-11T06:29:32.982Z,3.35
2022-12-11T06:32:00.026Z,2.13
2022-12-11T06:34:27.473Z,3.22
2022-12-11T06:36:54.611Z,6.25
2022-12-11T06:39:21.565Z,2.35
2022-12-11T06:43:01.225Z,6.65
2022-12-11T06:45:11.469Z,5.15
2022-12-11T06:47:38.665Z,3.17
2022-12-11T06:50:06.152Z,4.35
2022-12-11T06:52:33.405Z,2.60
2022-12-11T06:55:07.117Z,6.78
2022-12-11T06:57:34.596Z,3.22
2022-12-11T07:00:01.527Z,5.47
2022-12-11T07:02:28.798Z,6.10
2022-12-11T07:04:56.212Z,3.30
2022-12-11T07:07:23.276Z,1.83
2022-12-11T07:09:50.329Z,4.72
2022-12-11T07:12:17.857Z,10.70
2022-12-11T07:14:44.946Z,13.02
2022-12-11T07:17:12.308Z,11.15
2022-12-11T07:19:40.052Z,3.95
2022-12-11T07:22:07.821Z,3.70
2022-12-11T07:24:34.868Z,4.13
2022-12-11T07:27:02.045Z,7.75
2022-12-11T07:29:29.046Z,4.53
2022-12-11T07:31:56.272Z,5.28
2022-12-11T07:34:23.513Z,3.35
2022-12-11T07:36:50.525Z,6.90
2022-12-11T07:39:17.450Z,9.80
2022-12-11T07:41:44.818Z,4.13
2022-12-11T07:44:11.988Z,4.95
2022-12-11T07:46:39.300Z,7.72
2022-12-11T07:49:07.025Z,4.60
2022-12-11T07:51:36.807Z,4.18
2022-12-11T07:54:18.245Z,6.30
2022-12-11T07:56:53.164Z,5.25
2022-12-11T07:59:23.717Z,2.40
2022-12-11T08:01:54.429Z,2.63
2022-12-11T08:04:25.178Z,2.90
2022-12-11T08:06:52.215Z,3.78
2022-12-11T08:09:35.536Z,2.63
2022-12-11T08:12:31.415Z,9.30
2022-12-11T08:17:57.320Z,21.50
2022-12-11T08:23:23.311Z,12.88
2022-12-11T08:25:57.583Z,10.82
2022-12-11T08:31:47.342Z,8.15
2022-12-11T08:34:44.719Z,8.60
2022-12-11T08:43:38.383Z,6.50
2022-12-11T08:46:08.270Z,4.22
2022-12-11T08:48:36.788Z,4.53
2022-12-11T08:51:35.207Z,4.43
2022-12-11T08:54:02.447Z,3.83
2022-12-11T08:56:35.354Z,4.53
2022-12-11T08:59:03.019Z,4.45
2022-12-11T09:01:36.308Z,3.85
2022-12-11T09:08:14.846Z,4.18
2022-12-11T09:10:48.442Z,5.07
2022-12-11T09:13:16.234Z,4.47
2022-12-11T09:15:44.436Z,5.38
2022-12-11T09:18:11.528Z,3.08
2022-12-11T09:20:39.375Z,3.72
2022-12-11T09:23:10.572Z,3.53
2022-12-11T09:25:41.833Z,2.63
2022-12-11T09:28:09.235Z,2.88
2022-12-11T09:30:36.443Z,6.65
2022-12-11T09:33:03.570Z,4.20
2022-12-11T09:35:40.863Z,3.63
2022-12-11T09:41:47.222Z,3.58
2022-12-11T09:44:24.403Z,5.00
2022-12-11T09:46:52.093Z,6.85
2022-12-11T09:49:27.176Z,4.40
2022-12-11T09:52:04.175Z,5.72
2022-12-11T09:54:32.035Z,5.35
2022-12-11T09:57:09.744Z,5.68
2022-12-11T10:00:04.912Z,5.15
2022-12-11T10:03:01.457Z,5.32
2022-12-11T10:05:45.528Z,10.02
2022-12-11T10:08:27.808Z,5.80
2022-12-11T10:11:11.737Z,8.02
2022-12-11T10:14:07.087Z,6.03
2022-12-11T10:17:19.856Z,5.47
2022-12-11T10:20:01.032Z,7.35
2022-12-11T10:22:31.464Z,6.97
2022-12-11T10:25:11.833Z,6.35
2022-12-11T10:27:55.242Z,4.70
2022-12-11T10:34:29.009Z,4.45
2022-12-11T10:37:08.025Z,4.50
2022-12-11T10:39:36.036Z,4.88
2022-12-11T10:42:34.513Z,4.80
2022-12-11T10:49:31.406Z,3.60
2022-12-11T10:58:36.986Z,5.95
2022-12-11T11:01:28.111Z,5.65
2022-12-11T11:04:38.820Z,7.18
2022-12-11T11:07:35.758Z,5.40
2022-12-11T11:13:05.284Z,7.18
2022-12-11T11:15:55.777Z,6.00
2022-12-11T11:18:35.773Z,5.78
2022-12-11T11:21:37.438Z,9.85
2022-12-11T11:24:58.484Z,7.28
2022-12-11T11:27:39.744Z,6.03
2022-12-11T11:30:39.995Z,5.05
2022-12-11T11:37:01.167Z,15.02
2022-12-11T11:42:34.682Z,12.20
2022-12-11T11:45:13.875Z,7.78
2022-12-11T11:48:01.212Z,7.18
2022-12-11T11:50:36.261Z,5.22
2022-12-11T11:53:40.674Z,4.55
2022-12-11T11:56:21.999Z,6.18
2022-12-11T11:59:19.819Z,7.32
2022-12-11T12:01:47.893Z,8.32
2022-12-11T12:04:18.738Z,6.38
2022-12-11T12:07:10.834Z,8.82
2022-12-11T12:09:57.232Z,9.00
2022-12-11T12:12:34.243Z,5.85
2022-12-11T12:15:26.217Z,5.72
2022-12-11T12:20:52.111Z,6.90
2022-12-11T12:23:53.445Z,10.10
2022-12-11T12:26:26.507Z,7.57
2022-12-11T12:29:20.005Z,6.57
2022-12-11T12:32:08.182Z,7.10
2022-12-11T12:34:50.267Z,5.88
2022-12-11T12:40:33.003Z,6.82
2022-12-11T12:43:26.167Z,5.63
2022-12-11T12:46:22.707Z,6.10
2022-12-11T12:52:39.700Z,8.88
2022-12-11T12:55:16.896Z,5.60
2022-12-11T12:57:49.664Z,6.60
2022-12-11T13:00:38.893Z,5.18
2022-12-11T13:06:14.755Z,6.50
2022-12-11T13:08:53.308Z,18.02
2022-12-11T13:11:31.226Z,10.05
2022-12-11T13:14:07.252Z,8.93
2022-12-11T13:16:41.748Z,6.20
2022-12-11T13:22:15.730Z,5.07
2022-12-11T13:24:52.043Z,5.10
2022-12-11T13:27:46.356Z,9.57
2022-12-11T13:30:26.655Z,10.68
2022-12-11T13:33:06.058Z,10.00
2022-12-11T13:36:26.002Z,7.32
2022-12-11T13:41:50.035Z,18.27
2022-12-11T13:44:30.801Z,18.67
2022-12-11T13:47:00.508Z,18.70
2022-12-11T13:49:34.119Z,13.50
2022-12-11T13:52:02.368Z,9.95
2022-12-11T13:54:32.809Z,9.65
2022-12-11T13:57:37.392Z,10.30
2022-12-11T14:00:07.055Z,11.88
2022-12-11T14:02:44.109Z,7.10
2022-12-11T14:05:34.939Z,7.35
2022-12-11T14:08:11.451Z,9.80
2022-12-11T14:10:45.639Z,10.15
2022-12-11T14:13:42.528Z,13.02
2022-12-11T14:16:23.390Z,8.73
2022-12-11T14:18:54.124Z,12.68
2022-12-11T14:21:25.946Z,16.15
2022-12-11T14:23:59.603Z,9.00
2022-12-11T14:26:32.077Z,6.25
2022-12-11T14:29:00.448Z,10.07
2022-12-11T14:31:43.076Z,13.15
2022-12-11T14:34:24.411Z,18.90
2022-12-11T14:36:52.061Z,13.65
2022-12-11T14:39:31.733Z,13.70
2022-12-11T14:42:12.551Z,13.57
2022-12-11T14:45:07.412Z,11.50
2022-12-11T14:47:41.189Z,8.23
2022-12-11T14:50:22.741Z,10.85
2022-12-11T14:53:42.152Z,7.68
2022-12-11T14:56:27.469Z,5.70
2022-12-11T14:59:03.205Z,4.68
2022-12-11T15:01:38.802Z,3.88
2022-12-11T15:04:30.761Z,6.55
2022-12-11T15:06:58.823Z,5.63
2022-12-11T15:09:36.825Z,7.80
2022-12-11T15:12:14.541Z,4.07
2022-12-11T15:14:55.980Z,4.10
2022-12-11T15:17:30.597Z,4.10
2022-12-11T15:20:11.796Z,3.92
2022-12-11T15:22:43.567Z,3.85
2022-12-11T15:25:23.043Z,3.83
2022-12-11T15:27:59.682Z,4.20
2022-12-11T15:30:32.790Z,5.45
2022-12-11T15:33:10.638Z,16.92
2022-12-11T15:35:39.532Z,32.17
2022-12-11T15:38:06.934Z,8.38
2022-12-11T15:40:34.111Z,7.15
2022-12-11T15:43:02.425Z,5.22
2022-12-11T15:46:01.157Z,5.30
2022-12-11T15:48:55.809Z,6.05
2022-12-11T15:51:23.347Z,5.40
2022-12-11T15:53:50.395Z,5.57
2022-12-11T15:56:27.627Z,6.32
2022-12-11T15:59:05.228Z,6.88
2022-12-11T16:01:37.126Z,10.13
2022-12-11T16:04:05.468Z,10.75
2022-12-11T16:06:35.120Z,17.05
2022-12-11T16:09:05.811Z,17.05
2022-12-11T16:11:32.828Z,8.85
2022-12-11T16:14:05.196Z,8.25
2022-12-11T16:16:34.417Z,7.93
2022-12-11T16:19:01.511Z,12.40
2022-12-11T16:21:28.557Z,8.85
2022-12-11T16:23:56.536Z,13.50
2022-12-11T16:26:23.585Z,7.78
2022-12-11T16:28:50.544Z,15.20
2022-12-11T16:31:17.623Z,100.50
2022-12-11T16:34:53.097Z,32.08
2022-12-11T16:37:20.384Z,10.70
2022-12-11T16:39:47.562Z,11.57
2022-12-11T16:42:14.536Z,9.55
2022-12-11T16:44:44.375Z,10.60
2022-12-11T16:47:12.269Z,9.55
2022-12-11T16:49:41.526Z,8.48
2022-12-11T16:52:10.509Z,7.65
2022-12-11T16:54:37.710Z,8.43
2022-12-11T16:57:05.296Z,9.48
2022-12-11T16:59:36.873Z,12.30
2022-12-11T17:02:05.042Z,10.57
2022-12-11T17:04:33.085Z,12.05
2022-12-11T17:07:01.047Z,12.73
2022-12-11T17:09:28.002Z,15.75
2022-12-11T17:12:06.059Z,18.65
2022-12-11T17:14:33.417Z,16.02
2022-12-11T17:17:00.497Z,19.02
2022-12-11T17:19:28.701Z,12.00
2022-12-11T17:21:56.323Z,15.32
2022-12-11T17:24:23.293Z,14.60
2022-12-11T17:26:51.446Z,12.05
2022-12-11T17:29:18.568Z,16.35
2022-12-11T17:31:45.851Z,13.85
2022-12-11T17:34:15.644Z,15.02
2022-12-11T17:37:04.120Z,11.68
2022-12-11T17:40:02.065Z,17.67
2022-12-11T17:42:29.870Z,14.02
2022-12-11T17:44:56.786Z,15.30
2022-12-11T17:47:23.933Z,14.07
2022-12-11T17:49:50.985Z,24.80
2022-12-11T17:52:18.413Z,19.52
2022-12-11T17:54:45.494Z,16.80
2022-12-11T17:57:15.571Z,20.65
2022-12-11T17:59:44.021Z,20.80
2022-12-11T18:02:11.688Z,18.33
2022-12-11T18:05:53.835Z,20.50
2022-12-11T18:08:26.180Z,17.07
2022-12-11T18:10:54.546Z,14.93
2022-12-11T18:13:22.133Z,12.98
2022-12-11T18:16:07.603Z,12.18
2022-12-11T18:18:34.846Z,14.27
2022-12-11T18:21:01.963Z,18.05
2022-12-11T18:23:29.246Z,16.45
2022-12-11T18:25:56.376Z,16.00
2022-12-11T18:28:26.589Z,15.85
2022-12-11T18:31:01.838Z,16.42
2022-12-11T18:33:32.786Z,16.08
2022-12-11T18:36:00.072Z,14.93
2022-12-11T18:38:30.642Z,14.18
2022-12-11T18:40:57.796Z,17.92
2022-12-11T18:43:31.547Z,16.83
2022-12-11T18:45:59.033Z,17.02
2022-12-11T18:48:26.457Z,20.63
2022-12-11T18:53:41.362Z,16.42
2022-12-11T18:56:11.323Z,18.15
2022-12-11T18:58:40.759Z,18.35
2022-12-11T19:01:29.159Z,25.55
2022-12-11T19:04:03.499Z,22.05
2022-12-11T19:06:35.849Z,18.48
2022-12-11T19:09:06.819Z,20.70
2022-12-11T19:11:37.932Z,16.88
2022-12-11T19:14:06.175Z,13.77
2022-12-11T19:16:37.440Z,16.27
2022-12-11T19:19:10.339Z,14.43
2022-12-11T19:21:47.983Z,17.25
2022-12-11T19:24:23.391Z,16.45
2022-12-11T19:26:51.885Z,18.55
2022-12-11T19:29:29.467Z,21.10
2022-12-11T19:32:00.139Z,18.35
2022-12-11T19:34:27.525Z,16.95
2022-12-11T19:36:55.109Z,16.65
2022-12-11T19:39:23.599Z,19.15
2022-12-11T19:41:50.756Z,22.58
2022-12-11T19:44:17.858Z,24.25
2022-12-11T19:46:44.929Z,24.67
2022-12-11T19:49:12.503Z,27.20
2022-12-11T19:51:41.178Z,26.15
2022-12-11T19:54:10.138Z,25.27
2022-12-11T19:56:37.229Z,33.42
2022-12-11T19:59:11.808Z,25.02
2022-12-11T20:04:24.614Z,26.13
2022-12-11T20:06:52.252Z,20.83
2022-12-11T20:09:19.764Z,25.73
2022-12-11T20:12:09.618Z,18.30
2022-12-11T20:15:02.644Z,16.80
2022-12-11T20:17:43.409Z,13.70
2022-12-11T20:20:11.219Z,14.38
2022-12-11T20:22:38.430Z,14.60
2022-12-11T20:25:15.033Z,15.63
2022-12-11T20:27:57.273Z,11.95
2022-12-11T20:30:24.878Z,11.15
2022-12-11T20:32:53.240Z,22.50
2022-12-11T20:35:20.319Z,14.45
2022-12-11T20:37:47.776Z,15.30
2022-12-11T20:40:15.008Z,21.65
2022-12-11T20:42:43.310Z,16.85
2022-12-11T20:45:11.185Z,16.48
2022-12-11T20:47:38.483Z,13.43
2022-12-11T20:50:06.237Z,12.15
2022-12-11T20:52:35.269Z,12.18
2022-12-11T20:55:03.321Z,11.57
2022-12-11T20:57:40.539Z,11.60
2022-12-11T21:00:11.339Z,13.98
2022-12-11T21:02:38.831Z,13.50
2022-12-11T21:05:07.803Z,14.00
2022-12-11T21:07:49.561Z,11.07
2022-12-11T21:10:19.837Z,12.13
2022-12-11T21:12:47.305Z,13.40
2022-12-11T21:15:14.890Z,13.73
2022-12-11T21:17:45.088Z,13.60
2022-12-11T21:20:12.268Z,16.92
2022-12-11T21:22:39.222Z,41.58
2022-12-11T21:25:06.915Z,13.00
2022-12-11T21:27:35.514Z,12.85
2022-12-11T21:30:07.441Z,10.38
2022-12-11T21:32:35.993Z,11.30
2022-12-11T21:35:04.192Z,9.48
2022-12-11T21:37:31.815Z,10.13
2022-12-11T21:39:59.086Z,10.20
2022-12-11T21:42:27.687Z,14.80
2022-12-11T21:47:45.064Z,11.57
2022-12-11T21:50:13.981Z,9.27
2022-12-11T21:52:41.273Z,11.13
2022-12-11T21:55:12.968Z,8.18
2022-12-11T21:57:43.165Z,10.60
2022-12-11T22:00:10.910Z,8.52
2022-12-11T22:02:42.795Z,11.55
2022-12-11T22:05:10.276Z,12.10
2022-12-11T22:07:37.542Z,16.90
2022-12-11T22:10:05.780Z,26.80
2022-12-11T22:12:33.158Z,19.25
2022-12-11T22:15:01.732Z,17.95
2022-12-11T22:17:37.939Z,30.30
2022-12-11T22:20:09.138Z,30.00
2022-12-11T22:22:46.273Z,20.85
2022-12-11T22:25:14.132Z,20.13
2022-12-11T22:27:42.434Z,21.02
2022-12-11T22:30:28.315Z,15.70
2022-12-11T22:33:05.910Z,12.65
2022-12-11T22:35:40.309Z,10.65
2022-12-11T22:38:07.300Z,10.90
2022-12-11T22:40:53.622Z,12.50
2022-12-11T22:43:23.615Z,10.25
2022-12-11T22:45:51.296Z,9.85
2022-12-11T22:48:19.702Z,13.52
2022-12-11T22:50:47.216Z,12.73
2022-12-11T22:53:14.352Z,14.90
2022-12-11T22:55:41.950Z,12.10
2022-12-11T22:58:09.021Z,10.82
2022-12-11T23:00:36.166Z,9.77
2022-12-11T23:03:03.792Z,9.02
2022-12-11T23:05:31.129Z,8.88
2022-12-11T23:07:58.113Z,10.20
2022-12-11T23:10:25.248Z,12.07
2022-12-11T23:12:52.349Z,9.00
2022-12-11T23:15:19.384Z,8.45
2022-12-11T23:17:46.472Z,6.00
2022-12-11T23:20:16.040Z,7.35
2022-12-11T23:22:46.295Z,10.23
2022-12-11T23:25:14.419Z,7.68
2022-12-11T23:27:41.866Z,7.93
2022-12-11T23:30:09.829Z,8.18
2022-12-11T23:32:38.102Z,6.75
2022-12-11T23:35:05.949Z,8.05
2022-12-11T23:37:33.832Z,8.70
2022-12-11T23:40:01.082Z,8.15
2022-12-11T23:42:28.206Z,9.25
2022-12-11T23:44:59.010Z,8.00
2022-12-11T23:47:30.103Z,6.63
2022-12-11T23:50:00.971Z,6.80
2022-12-11T23:52:32.684Z,7.53
2022-12-11T23:55:02.877Z,9.20
2022-12-11T23:57:30.204Z,10.02
2022-12-11T23:59:59.732Z,12.20
